Time;durP1;ratioP1;P1;durP2;ratioP2;P2;SDS_P1;SDS_P2;PMS_P1;PMS_P2;Temp;Humidity;BMP_temperature;BMP_pressure;BME280_temperature;BME280_humidity;BME280_pressure;Samples;Min_cycle;Max_cycle;Signal;HPM_P1;HPM_P2
2021/04/14 00:01:06;;;;;;;;;;;18.20;47.00;;;;;;5049336;28;19936;-75
2021/04/14 00:03:32;;;;;;;;;;;18.30;46.50;;;;;;5046306;28;19920;-76
2021/04/14 00:05:59;;;;;;;;;;;18.20;46.80;;;;;;5046154;28;19916;-76
2021/04/14 00:08:27;;;;;;;;;;;18.20;47.20;;;;;;5056443;28;20265;-76
2021/04/14 00:10:54;;;;;;;;;;;18.20;47.00;;;;;;5046342;28;19931;-75
2021/04/14 00:13:22;;;;;;;;;;;18.10;46.70;;;;;;5043373;28;19983;-75
2021/04/14 00:15:50;;;;;;;;;;;18.30;46.70;;;;;;5050642;28;19923;-75
2021/04/14 00:18:17;;;;;;;;;;;18.20;46.90;;;;;;5032279;28;20285;-75
2021/04/14 00:20:44;;;;;;;;;;;18.30;47.00;;;;;;5056019;28;19916;-75
2021/04/14 00:23:11;;;;;;;;;;;18.40;46.20;;;;;;5052657;28;19943;-75
2021/04/14 00:25:39;;;;;;;;;;;18.30;46.20;;;;;;5047807;28;19912;-75
2021/04/14 00:28:05;;;;;;;;;;;18.30;45.90;;;;;;5047677;28;19917;-75
2021/04/14 00:30:31;;;;;;;;;;;18.20;46.80;;;;;;5052748;28;19916;-75
2021/04/14 00:32:57;;;;;;;;;;;18.20;45.90;;;;;;5055474;28;19935;-74
2021/04/14 00:35:24;;;;;;;;;;;18.20;45.80;;;;;;5036339;28;19920;-75
2021/04/14 00:37:50;;;;;;;;;;;18.30;46.10;;;;;;5045065;28;19909;-74
2021/04/14 00:40:22;;;;;;;;;;;18.20;46.10;;;;;;5047542;28;19908;-74
2021/04/14 00:42:48;;;;;;;;;;;18.20;45.40;;;;;;5056000;28;19920;-76
2021/04/14 00:45:15;;;;;;;;;;;18.10;46.00;;;;;;5050018;28;20270;-75
2021/04/14 00:47:41;;;;;;;;;;;17.90;46.20;;;;;;5052876;28;20388;-75
2021/04/14 00:50:11;;;;;;;;;;;17.80;46.40;;;;;;5045540;28;20382;-74
2021/04/14 00:52:37;;;;;;;;;;;17.70;46.90;;;;;;5047248;28;19909;-75
2021/04/14 00:55:06;;;;;;;;;;;17.60;47.60;;;;;;5049633;28;19989;-76
2021/04/14 00:57:32;;;;;;;;;;;17.50;47.40;;;;;;5055335;28;19905;-75
2021/04/14 00:59:58;;;;;;;;;;;17.40;47.40;;;;;;5043504;28;20235;-75
2021/04/14 01:02:25;;;;;;;;;;;17.30;47.80;;;;;;5048701;28;20401;-75
2021/04/14 01:04:51;;;;;;;;;;;17.30;47.60;;;;;;5023151;28;19909;-75
2021/04/14 01:07:17;;;;;;;;;;;17.20;47.80;;;;;;5052850;28;19908;-75
2021/04/14 01:09:43;;;;;;;;;;;17.40;48.10;;;;;;5049777;28;19992;-74
2021/04/14 01:12:09;;;;;;;;;;;17.30;47.70;;;;;;5054901;28;19999;-74
2021/04/14 01:14:35;;;;;;;;;;;17.40;47.80;;;;;;5052546;28;19913;-74
2021/04/14 01:17:02;;;;;;;;;;;17.30;48.10;;;;;;5054387;28;19915;-76
2021/04/14 01:19:29;;;;;;;;;;;17.40;47.90;;;;;;5050161;28;20282;-74
2021/04/14 01:21:55;;;;;;;;;;;17.40;47.90;;;;;;5052626;28;19970;-76
2021/04/14 01:24:21;;;;;;;;;;;17.30;47.50;;;;;;5052466;28;19958;-75
2021/04/14 01:26:47;;;;;;;;;;;17.30;47.80;;;;;;5041011;28;20247;-74
2021/04/14 01:29:14;;;;;;;;;;;17.00;48.10;;;;;;5052476;28;19939;-74
2021/04/14 01:31:40;;;;;;;;;;;16.90;48.00;;;;;;5053336;28;19915;-74
2021/04/14 01:34:13;;;;;;;;;;;17.10;47.60;;;;;;5048902;28;19908;-74
2021/04/14 01:36:40;;;;;;;;;;;17.20;47.30;;;;;;5051347;28;20314;-74
2021/04/14 01:39:07;;;;;;;;;;;17.30;47.40;;;;;;5052955;28;19908;-74
2021/04/14 01:41:33;;;;;;;;;;;17.20;46.80;;;;;;5044788;28;19927;-74
2021/04/14 01:44:00;;;;;;;;;;;17.10;47.00;;;;;;5053181;28;20358;-74
2021/04/14 01:46:26;;;;;;;;;;;17.00;46.60;;;;;;5050505;28;20003;-76
2021/04/14 01:48:52;;;;;;;;;;;16.90;47.00;;;;;;5044369;28;20067;-75
2021/04/14 01:51:18;;;;;;;;;;;17.00;47.10;;;;;;5040142;28;19976;-77
2021/04/14 01:53:46;;;;;;;;;;;16.90;47.30;;;;;;5044407;28;20002;-76
2021/04/14 01:56:13;;;;;;;;;;;16.80;47.30;;;;;;5046201;28;20330;-76
2021/04/14 01:58:40;;;;;;;;;;;16.40;47.90;;;;;;5050500;28;20215;-74
2021/04/14 02:01:07;;;;;;;;;;;16.50;48.00;;;;;;5033437;28;19908;-74
2021/04/14 02:03:35;;;;;;;;;;;16.30;49.00;;;;;;5050147;28;20334;-74
2021/04/14 02:06:02;;;;;;;;;;;16.10;49.10;;;;;;5044992;28;19936;-74
2021/04/14 02:08:28;;;;;;;;;;;16.20;50.10;;;;;;5045401;28;19908;-74
2021/04/14 02:10:54;;;;;;;;;;;16.10;50.00;;;;;;5051068;28;20301;-76
2021/04/14 02:13:22;;;;;;;;;;;15.90;50.20;;;;;;5054664;28;20365;-76
2021/04/14 02:15:49;;;;;;;;;;;15.80;50.90;;;;;;5041195;28;19913;-74
2021/04/14 02:18:15;;;;;;;;;;;15.70;51.10;;;;;;5046865;28;19916;-76
2021/04/14 02:20:41;;;;;;;;;;;15.50;52.00;;;;;;5042824;28;19909;-74
2021/04/14 02:23:27;;;;;;;;;;;15.30;52.20;;;;;;5052917;28;19996;-75
2021/04/14 02:25:56;;;;;;;;;;;15.20;52.40;;;;;;5050462;28;19908;-76
2021/04/14 02:28:23;;;;;;;;;;;15.00;53.00;;;;;;5044963;28;19940;-75
2021/04/14 02:30:50;;;;;;;;;;;15.00;52.20;;;;;;5032471;28;20011;-75
2021/04/14 02:33:16;;;;;;;;;;;14.90;52.70;;;;;;5051117;28;20386;-75
2021/04/14 02:35:42;;;;;;;;;;;14.70;53.70;;;;;;5050246;28;19924;-73
2021/04/14 02:38:10;;;;;;;;;;;14.70;53.80;;;;;;5049510;28;19915;-75
2021/04/14 02:40:36;;;;;;;;;;;14.60;54.40;;;;;;5049681;28;19988;-74
2021/04/14 02:43:02;;;;;;;;;;;14.30;55.20;;;;;;5052917;28;19919;-75
2021/04/14 02:45:29;;;;;;;;;;;14.20;55.30;;;;;;5054885;28;19909;-75
2021/04/14 02:47:56;;;;;;;;;;;14.30;55.60;;;;;;5056577;28;19905;-76
2021/04/14 02:50:22;;;;;;;;;;;14.10;55.70;;;;;;5053871;28;19908;-75
2021/04/14 02:52:48;;;;;;;;;;;14.20;55.60;;;;;;5042577;28;19913;-76
2021/04/14 02:55:15;;;;;;;;;;;14.10;55.30;;;;;;5050712;28;19908;-75
2021/04/14 02:57:41;;;;;;;;;;;14.10;56.00;;;;;;5054874;28;19908;-75
2021/04/14 03:00:09;;;;;;;;;;;14.00;56.40;;;;;;5048137;28;19916;-76
2021/04/14 03:02:35;;;;;;;;;;;14.00;56.60;;;;;;5045529;28;19921;-76
2021/04/14 03:05:01;;;;;;;;;;;13.90;56.70;;;;;;5045547;28;19916;-76
2021/04/14 03:07:27;;;;;;;;;;;13.80;57.10;;;;;;5028316;28;19932;-78
2021/04/14 03:09:53;;;;;;;;;;;13.80;57.50;;;;;;5037366;28;19916;-75
2021/04/14 03:12:19;;;;;;;;;;;13.80;57.00;;;;;;5053041;28;19909;-76
2021/04/14 03:14:45;;;;;;;;;;;13.80;57.10;;;;;;5050339;28;20013;-76
2021/04/14 03:17:11;;;;;;;;;;;13.80;57.10;;;;;;5049858;28;19909;-77
2021/04/14 03:19:37;;;;;;;;;;;13.80;57.30;;;;;;5046299;28;19909;-77
2021/04/14 03:22:04;;;;;;;;;;;13.70;57.80;;;;;;5053582;28;19967;-77
2021/04/14 03:24:31;;;;;;;;;;;13.70;57.60;;;;;;5054557;28;19908;-76
2021/04/14 03:26:57;;;;;;;;;;;13.70;57.80;;;;;;5055284;28;19920;-76
2021/04/14 03:29:23;;;;;;;;;;;13.70;58.80;;;;;;5052210;28;20522;-77
2021/04/14 03:31:49;;;;;;;;;;;13.70;57.90;;;;;;5048297;28;20393;-77
2021/04/14 03:34:15;;;;;;;;;;;13.70;57.70;;;;;;5052895;28;19916;-77
2021/04/14 03:36:41;;;;;;;;;;;13.70;57.80;;;;;;5057082;28;19958;-76
2021/04/14 03:39:08;;;;;;;;;;;13.70;58.00;;;;;;5050270;28;20004;-77
2021/04/14 03:41:35;;;;;;;;;;;13.70;57.90;;;;;;5024662;28;19913;-76
2021/04/14 03:44:01;;;;;;;;;;;13.50;58.60;;;;;;5051976;28;19909;-76
2021/04/14 03:46:27;;;;;;;;;;;13.50;58.50;;;;;;5048478;28;19905;-78
2021/04/14 03:48:53;;;;;;;;;;;13.50;58.70;;;;;;5035725;28;19916;-77
2021/04/14 03:51:21;;;;;;;;;;;13.50;58.40;;;;;;5050908;28;20354;-78
2021/04/14 03:53:47;;;;;;;;;;;13.50;58.70;;;;;;5051021;28;19916;-76
2021/04/14 03:56:15;;;;;;;;;;;13.40;59.00;;;;;;5057526;28;19915;-76
2021/04/14 03:58:43;;;;;;;;;;;13.40;59.10;;;;;;5050473;28;19909;-75
2021/04/14 04:01:14;;;;;;;;;;;13.40;59.00;;;;;;5021693;28;19916;-76
2021/04/14 04:03:40;;;;;;;;;;;13.30;58.70;;;;;;5052044;28;20421;-76
2021/04/14 04:06:06;;;;;;;;;;;13.30;58.70;;;;;;5052514;28;19940;-76
2021/04/14 04:08:33;;;;;;;;;;;13.10;58.90;;;;;;5030974;28;19908;-75
2021/04/14 04:10:59;;;;;;;;;;;13.00;59.30;;;;;;5055080;28;20360;-76
2021/04/14 04:13:27;;;;;;;;;;;13.10;59.10;;;;;;5034190;28;20381;-76
2021/04/14 04:15:53;;;;;;;;;;;13.00;59.40;;;;;;5057521;28;19966;-75
2021/04/14 04:18:19;;;;;;;;;;;13.00;58.60;;;;;;5057314;28;20250;-75
2021/04/14 04:20:45;;;;;;;;;;;13.10;58.50;;;;;;5038697;28;19913;-75
2021/04/14 04:23:12;;;;;;;;;;;13.10;58.40;;;;;;5055061;28;19939;-75
2021/04/14 04:25:39;;;;;;;;;;;13.20;59.00;;;;;;5035941;28;19931;-76
2021/04/14 04:28:05;;;;;;;;;;;13.50;58.00;;;;;;5039264;28;19912;-76
2021/04/14 04:30:31;;;;;;;;;;;13.40;58.00;;;;;;5034590;28;19909;-76
2021/04/14 04:32:58;;;;;;;;;;;13.30;58.30;;;;;;5056854;28;19908;-76
2021/04/14 04:35:25;;;;;;;;;;;13.20;58.90;;;;;;5054404;28;19916;-75
2021/04/14 04:37:51;;;;;;;;;;;13.40;58.80;;;;;;5035109;28;19909;-76
2021/04/14 04:40:18;;;;;;;;;;;13.40;58.10;;;;;;5054248;28;20346;-75
2021/04/14 04:42:44;;;;;;;;;;;13.30;58.60;;;;;;5050228;28;20000;-76
2021/04/14 04:45:11;;;;;;;;;;;13.20;59.20;;;;;;5048482;28;19908;-76
2021/04/14 04:47:37;;;;;;;;;;;13.30;59.00;;;;;;5054490;28;19936;-75
2021/04/14 04:50:07;;;;;;;;;;;13.50;58.30;;;;;;5052181;28;19922;-75
2021/04/14 04:52:33;;;;;;;;;;;13.40;58.40;;;;;;5041575;28;19908;-76
2021/04/14 04:54:59;;;;;;;;;;;13.70;57.90;;;;;;5049006;28;19966;-76
2021/04/14 04:57:25;;;;;;;;;;;13.70;58.40;;;;;;5050093;28;19913;-75
2021/04/14 04:59:51;;;;;;;;;;;13.70;57.50;;;;;;5018312;28;19905;-75
2021/04/14 05:02:17;;;;;;;;;;;13.70;57.50;;;;;;5045152;28;19927;-76
2021/04/14 05:04:44;;;;;;;;;;;13.50;58.30;;;;;;5040802;28;19905;-76
2021/04/14 05:07:10;;;;;;;;;;;13.60;57.30;;;;;;5039593;28;19905;-76
2021/04/14 05:09:36;;;;;;;;;;;13.80;57.80;;;;;;5055345;28;19915;-75
2021/04/14 05:12:02;;;;;;;;;;;13.70;57.40;;;;;;5056291;28;19966;-76
2021/04/14 05:14:28;;;;;;;;;;;13.60;57.80;;;;;;5034378;28;19917;-76
2021/04/14 05:16:54;;;;;;;;;;;13.70;57.80;;;;;;5034985;28;19971;-76
2021/04/14 05:19:20;;;;;;;;;;;13.60;57.50;;;;;;5048706;28;19909;-75
2021/04/14 05:21:46;;;;;;;;;;;13.50;58.00;;;;;;5035257;28;19916;-76
2021/04/14 05:24:13;;;;;;;;;;;13.50;58.60;;;;;;5045187;28;19943;-76
2021/04/14 05:26:39;;;;;;;;;;;13.50;58.50;;;;;;5051473;28;19911;-76
2021/04/14 05:29:05;;;;;;;;;;;13.50;58.70;;;;;;5051028;28;20015;-76
2021/04/14 05:31:32;;;;;;;;;;;13.40;58.70;;;;;;5045801;28;19913;-76
2021/04/14 05:34:01;;;;;;;;;;;13.40;58.70;;;;;;5035012;28;19978;-76
2021/04/14 05:36:27;;;;;;;;;;;13.20;58.60;;;;;;5035030;28;19921;-76
2021/04/14 05:38:53;;;;;;;;;;;13.20;58.80;;;;;;5035394;28;19912;-76
2021/04/14 05:41:19;;;;;;;;;;;13.10;58.80;;;;;;5053017;28;19962;-76
2021/04/14 05:43:46;;;;;;;;;;;13.10;59.20;;;;;;5054909;28;19913;-76
2021/04/14 05:46:14;;;;;;;;;;;13.20;58.60;;;;;;5043714;28;20339;-77
2021/04/14 05:48:41;;;;;;;;;;;13.40;57.90;;;;;;5040831;28;20232;-77
2021/04/14 05:51:08;;;;;;;;;;;13.60;58.60;;;;;;5037455;28;19916;-78
2021/04/14 05:53:35;;;;;;;;;;;13.60;58.60;;;;;;5023222;28;19909;-76
2021/04/14 05:56:02;;;;;;;;;;;13.70;57.80;;;;;;5046473;28;20393;-76
2021/04/14 05:58:28;;;;;;;;;;;13.40;58.30;;;;;;5038561;28;20231;-76
2021/04/14 06:00:55;;;;;;;;;;;13.60;58.60;;;;;;5049631;28;19909;-76
2021/04/14 06:03:24;;;;;;;;;;;13.60;58.20;;;;;;5035781;28;20224;-76
2021/04/14 06:05:54;;;;;;;;;;;13.60;58.30;;;;;;5035308;28;19996;-76
2021/04/14 06:08:20;;;;;;;;;;;13.50;58.60;;;;;;5034834;28;19909;-76
2021/04/14 06:10:46;;;;;;;;;;;13.30;58.40;;;;;;5046273;28;19909;-76
2021/04/14 06:13:12;;;;;;;;;;;13.30;58.70;;;;;;5044678;28;19923;-75
2021/04/14 06:15:39;;;;;;;;;;;13.40;58.50;;;;;;5046001;28;19916;-76
2021/04/14 06:18:05;;;;;;;;;;;13.40;59.40;;;;;;5045045;28;19913;-76
2021/04/14 06:20:32;;;;;;;;;;;13.50;59.30;;;;;;5040626;28;19966;-76
2021/04/14 06:23:00;;;;;;;;;;;13.60;58.70;;;;;;5042702;28;19908;-76
2021/04/14 06:25:27;;;;;;;;;;;13.60;58.50;;;;;;5046118;28;19967;-76
2021/04/14 06:28:06;;;;;;;;;;;13.80;58.80;;;;;;5055255;28;19912;-76
2021/04/14 06:30:36;;;;;;;;;;;13.80;58.60;;;;;;5056257;28;19938;-75
2021/04/14 06:33:04;;;;;;;;;;;13.70;58.40;;;;;;5055358;28;19908;-75
2021/04/14 06:35:31;;;;;;;;;;;13.70;58.60;;;;;;5043155;28;19913;-75
2021/04/14 06:37:58;;;;;;;;;;;13.70;58.80;;;;;;5055986;28;19920;-76
2021/04/14 06:43:15;;;;;;;;;;;13.80;58.50;;;;;;5057071;28;20003;-76
2021/04/14 06:45:44;;;;;;;;;;;13.80;58.40;;;;;;5056450;28;19916;-76
2021/04/14 06:48:13;;;;;;;;;;;13.70;58.20;;;;;;5038170;28;19952;-76
2021/04/14 06:50:51;;;;;;;;;;;13.50;59.30;;;;;;5050041;28;19958;-76
2021/04/14 06:53:23;;;;;;;;;;;13.60;59.40;;;;;;5052381;28;19909;-76
2021/04/14 06:55:54;;;;;;;;;;;13.50;58.70;;;;;;5054089;28;20331;-76
2021/04/14 06:58:23;;;;;;;;;;;13.70;58.70;;;;;;5057743;28;20313;-77
2021/04/14 07:00:53;;;;;;;;;;;13.40;58.90;;;;;;5056108;28;19916;-76
2021/04/14 07:03:19;;;;;;;;;;;13.60;59.00;;;;;;5038200;28;19927;-76
2021/04/14 07:05:47;;;;;;;;;;;13.60;59.00;;;;;;5055018;28;20269;-77
2021/04/14 07:08:19;;;;;;;;;;;13.70;58.80;;;;;;5054812;28;20300;-76
2021/04/14 07:10:48;;;;;;;;;;;13.60;58.90;;;;;;5057220;28;19982;-76
2021/04/14 07:13:14;;;;;;;;;;;13.50;58.60;;;;;;5056124;28;19913;-76
2021/04/14 07:15:40;;;;;;;;;;;13.60;58.90;;;;;;5053875;28;20253;-77
2021/04/14 07:18:25;;;;;;;;;;;13.60;58.50;;;;;;5053975;28;19917;-76
2021/04/14 07:21:06;;;;;;;;;;;13.50;58.70;;;;;;5056293;28;20050;-76
2021/04/14 07:23:42;;;;;;;;;;;13.40;58.80;;;;;;5043955;28;20004;-76
2021/04/14 07:26:08;;;;;;;;;;;13.20;59.20;;;;;;5054741;28;19931;-76
2021/04/14 07:28:51;;;;;;;;;;;13.30;59.60;;;;;;5055278;28;20334;-76
2021/04/14 07:31:26;;;;;;;;;;;13.40;59.30;;;;;;5055151;28;19904;-76
2021/04/14 07:34:10;;;;;;;;;;;13.30;59.20;;;;;;5053488;28;20357;-76
2021/04/14 07:36:57;;;;;;;;;;;13.40;59.60;;;;;;5055391;28;19963;-76
2021/04/14 07:39:32;;;;;;;;;;;13.30;59.40;;;;;;5053811;28;20054;-76
2021/04/14 07:42:09;;;;;;;;;;;13.40;59.50;;;;;;5052320;28;20219;-76
2021/04/14 07:44:38;;;;;;;;;;;13.40;59.00;;;;;;5054048;28;19912;-77
2021/04/14 07:47:07;;;;;;;;;;;13.50;59.00;;;;;;5056135;28;20334;-76
2021/04/14 07:49:35;;;;;;;;;;;13.50;59.60;;;;;;5052618;28;19909;-76
2021/04/14 07:52:01;;;;;;;;;;;13.40;59.20;;;;;;5044500;28;19999;-76
2021/04/14 07:54:37;;;;;;;;;;;13.40;59.70;;;;;;5024248;28;20407;-76
2021/04/14 07:57:03;;;;;;;;;;;13.30;59.10;;;;;;5053018;28;20317;-77
2021/04/14 07:59:30;;;;;;;;;;;13.20;59.90;;;;;;5055533;28;19908;-77
2021/04/14 08:01:58;;;;;;;;;;;13.40;59.40;;;;;;5053565;28;20250;-77
2021/04/14 08:04:32;;;;;;;;;;;13.40;59.40;;;;;;5031086;28;20598;-76
2021/04/14 08:07:13;;;;;;;;;;;13.50;59.50;;;;;;5054023;28;19948;-76
2021/04/14 08:09:55;;;;;;;;;;;13.50;59.20;;;;;;5056034;28;19913;-76
2021/04/14 08:12:29;;;;;;;;;;;13.30;59.50;;;;;;5035659;28;19968;-76
2021/04/14 08:15:14;;;;;;;;;;;13.40;59.50;;;;;;5049791;28;19920;-76
2021/04/14 08:17:41;;;;;;;;;;;13.50;59.80;;;;;;5056167;28;19919;-76
2021/04/14 08:20:27;;;;;;;;;;;13.60;59.30;;;;;;5055757;28;19934;-76
2021/04/14 08:23:04;;;;;;;;;;;13.40;59.40;;;;;;5052619;28;19912;-76
2021/04/14 08:25:30;;;;;;;;;;;13.50;59.30;;;;;;5049485;28;20247;-77
2021/04/14 08:27:58;;;;;;;;;;;13.30;59.20;;;;;;5052364;28;20251;-77
2021/04/14 08:30:24;;;;;;;;;;;13.20;60.00;;;;;;5054283;28;19915;-77
2021/04/14 08:32:53;;;;;;;;;;;13.20;59.50;;;;;;5053062;28;19908;-76
2021/04/14 08:35:36;;;;;;;;;;;13.40;59.30;;;;;;5037679;28;19919;-77
2021/04/14 08:38:07;;;;;;;;;;;13.40;59.90;;;;;;5054465;28;19908;-76
2021/04/14 08:40:57;;;;;;;;;;;13.40;59.50;;;;;;5055037;28;19912;-76
2021/04/14 08:43:44;;;;;;;;;;;13.40;59.50;;;;;;5041246;28;19912;-76
2021/04/14 08:46:13;;;;;;;;;;;13.30;59.80;;;;;;5050593;28;19915;-76
2021/04/14 08:48:40;;;;;;;;;;;13.20;60.10;;;;;;5053618;28;19995;-76
2021/04/14 08:51:07;;;;;;;;;;;13.00;59.70;;;;;;5053898;28;19920;-76
2021/04/14 08:53:38;;;;;;;;;;;12.90;60.70;;;;;;5053098;28;19916;-76
2021/04/14 08:56:05;;;;;;;;;;;12.90;60.50;;;;;;5054294;28;20378;-77
2021/04/14 08:58:31;;;;;;;;;;;13.10;60.80;;;;;;5055084;28;20242;-76
2021/04/14 09:00:58;;;;;;;;;;;13.10;60.30;;;;;;5055081;28;19912;-75
2021/04/14 09:03:26;;;;;;;;;;;13.20;60.00;;;;;;5052419;28;19967;-76
2021/04/14 09:05:52;;;;;;;;;;;13.20;60.20;;;;;;5055088;28;19908;-76
2021/04/14 09:08:20;;;;;;;;;;;12.90;60.20;;;;;;5049244;28;19928;-76
2021/04/14 09:10:52;;;;;;;;;;;13.00;60.60;;;;;;5035869;28;19909;-75
2021/04/14 09:13:28;;;;;;;;;;;13.20;60.30;;;;;;5039190;28;19955;-75
2021/04/14 09:15:59;;;;;;;;;;;13.20;59.80;;;;;;5052397;28;20247;-76
2021/04/14 09:18:29;;;;;;;;;;;13.10;60.00;;;;;;5047349;28;19919;-76
2021/04/14 09:21:08;;;;;;;;;;;12.90;60.60;;;;;;5040743;28;19913;-75
2021/04/14 09:23:35;;;;;;;;;;;13.10;61.00;;;;;;5053393;28;19912;-77
2021/04/14 09:26:02;;;;;;;;;;;13.30;60.70;;;;;;5052559;28;19909;-75
2021/04/14 09:28:29;;;;;;;;;;;13.30;59.90;;;;;;5053897;28;20354;-75
2021/04/14 09:30:55;;;;;;;;;;;13.20;60.30;;;;;;5041039;28;19916;-76
2021/04/14 09:33:23;;;;;;;;;;;13.30;60.50;;;;;;5045569;28;19909;-76
2021/04/14 09:35:49;;;;;;;;;;;13.30;60.10;;;;;;5052944;28;20074;-76
2021/04/14 09:38:23;;;;;;;;;;;13.20;60.70;;;;;;5052471;28;20355;-76
2021/04/14 09:40:50;;;;;;;;;;;13.30;60.70;;;;;;5052283;28;19908;-76
2021/04/14 09:43:19;;;;;;;;;;;13.10;60.80;;;;;;5053616;28;19912;-76
2021/04/14 09:45:59;;;;;;;;;;;13.30;60.50;;;;;;5030112;28;19920;-76
2021/04/14 09:48:37;;;;;;;;;;;13.20;60.50;;;;;;5047128;28;19913;-76
2021/04/14 09:51:03;;;;;;;;;;;13.10;60.20;;;;;;5053036;28;19912;-76
2021/04/14 09:53:35;;;;;;;;;;;13.20;61.10;;;;;;5054022;28;19917;-76
2021/04/14 09:56:10;;;;;;;;;;;13.10;60.50;;;;;;5042607;28;20407;-76
2021/04/14 09:58:42;;;;;;;;;;;13.10;61.00;;;;;;5054829;28;19904;-76
2021/04/14 10:01:15;;;;;;;;;;;13.10;60.50;;;;;;5052311;28;19916;-76
2021/04/14 10:03:44;;;;;;;;;;;13.10;61.20;;;;;;5052712;28;19920;-76
2021/04/14 10:06:13;;;;;;;;;;;13.10;60.80;;;;;;5051279;28;19909;-76
2021/04/14 10:08:41;;;;;;;;;;;13.00;61.40;;;;;;5054142;28;19909;-76
2021/04/14 10:11:07;;;;;;;;;;;13.20;60.90;;;;;;5051260;28;20003;-76
2021/04/14 10:13:33;;;;;;;;;;;13.30;60.70;;;;;;5043105;28;19948;-76
2021/04/14 10:16:00;;;;;;;;;;;13.10;60.80;;;;;;5039994;28;19917;-76
2021/04/14 10:18:28;;;;;;;;;;;13.10;61.30;;;;;;5035030;28;19909;-76
2021/04/14 10:20:54;;;;;;;;;;;13.10;60.90;;;;;;5051233;28;20304;-76
2021/04/14 10:23:25;;;;;;;;;;;13.00;61.00;;;;;;5052957;28;19967;-76
2021/04/14 10:26:01;;;;;;;;;;;13.00;61.00;;;;;;5046340;28;19909;-76
2021/04/14 10:28:27;;;;;;;;;;;12.90;61.80;;;;;;5045509;28;19955;-75
2021/04/14 10:31:11;;;;;;;;;;;13.00;61.50;;;;;;5052379;28;19970;-76
2021/04/14 10:33:38;;;;;;;;;;;13.00;61.30;;;;;;5035780;28;19908;-76
2021/04/14 10:36:31;;;;;;;;;;;13.10;61.40;;;;;;5028889;28;19995;-76
2021/04/14 10:39:07;;;;;;;;;;;13.00;61.00;;;;;;5043552;28;19918;-76
2021/04/14 10:41:33;;;;;;;;;;;13.00;61.60;;;;;;5052339;28;19963;-76
2021/04/14 10:43:59;;;;;;;;;;;12.90;61.50;;;;;;5049201;28;19952;-76
2021/04/14 10:46:31;;;;;;;;;;;12.90;61.60;;;;;;5051191;28;19931;-76
2021/04/14 10:49:05;;;;;;;;;;;12.90;61.70;;;;;;5051984;28;19913;-75
2021/04/14 10:51:51;;;;;;;;;;;12.90;61.70;;;;;;5053308;28;19946;-76
2021/04/14 10:54:18;;;;;;;;;;;13.00;61.30;;;;;;5036682;28;20351;-76
2021/04/14 10:56:44;;;;;;;;;;;13.00;61.10;;;;;;5051566;28;19909;-76
2021/04/14 10:59:16;;;;;;;;;;;12.90;61.90;;;;;;5053603;28;19909;-76
2021/04/14 11:01:43;;;;;;;;;;;12.80;61.40;;;;;;5037700;28;19912;-76
2021/04/14 11:04:09;;;;;;;;;;;12.70;62.00;;;;;;5055901;28;19909;-76
2021/04/14 11:06:35;;;;;;;;;;;12.70;61.70;;;;;;5057932;28;19908;-76
2021/04/14 11:09:02;;;;;;;;;;;12.70;61.90;;;;;;5055403;28;19988;-75
2021/04/14 11:11:29;;;;;;;;;;;12.70;62.20;;;;;;5056015;28;19916;-76
2021/04/14 11:13:55;;;;;;;;;;;12.90;61.80;;;;;;5057794;28;20335;-76
2021/04/14 11:16:21;;;;;;;;;;;12.80;61.20;;;;;;5057275;28;20279;-76
2021/04/14 11:18:47;;;;;;;;;;;12.70;61.40;;;;;;5050353;28;19932;-75
2021/04/14 11:21:43;;;;;;;;;;;12.80;61.80;;;;;;5038668;28;19908;-76
2021/04/14 11:24:09;;;;;;;;;;;12.90;61.50;;;;;;5040132;28;20353;-76
2021/04/14 11:26:36;;;;;;;;;;;12.90;61.60;;;;;;5056808;28;20007;-76
2021/04/14 11:29:03;;;;;;;;;;;12.80;62.00;;;;;;5050404;28;20000;-76
2021/04/14 11:31:36;;;;;;;;;;;12.80;61.80;;;;;;5056393;28;19940;-76
2021/04/14 11:34:19;;;;;;;;;;;12.80;61.70;;;;;;5052830;28;19909;-75
2021/04/14 11:36:56;;;;;;;;;;;12.60;62.00;;;;;;5067859;28;19939;-75
2021/04/14 11:39:22;;;;;;;;;;;12.60;62.10;;;;;;5052416;28;20292;-75
2021/04/14 11:42:01;;;;;;;;;;;12.50;62.00;;;;;;5047959;28;19995;-75
2021/04/14 11:44:56;;;;;;;;;;;12.40;62.20;;;;;;5045846;28;19909;-75
2021/04/14 11:47:27;;;;;;;;;;;12.40;62.20;;;;;;5020274;28;20322;-75
2021/04/14 11:49:53;;;;;;;;;;;12.40;62.20;;;;;;5054319;28;20246;-75
2021/04/14 11:52:22;;;;;;;;;;;12.30;62.20;;;;;;5055965;28;20219;-75
2021/04/14 11:54:49;;;;;;;;;;;12.30;62.30;;;;;;5047815;28;19917;-74
2021/04/14 11:57:26;;;;;;;;;;;12.40;62.90;;;;;;5037340;28;19956;-75
2021/04/14 12:00:25;;;;;;;;;;;12.30;61.80;;;;;;5054092;28;20000;-75
2021/04/14 12:02:54;;;;;;;;;;;12.40;61.90;;;;;;5011623;28;20035;-75
2021/04/14 12:05:20;;;;;;;;;;;12.40;62.60;;;;;;5054813;28;19931;-75
2021/04/14 12:07:46;;;;;;;;;;;12.30;61.80;;;;;;5056563;28;19908;-75
2021/04/14 12:10:12;;;;;;;;;;;12.20;62.10;;;;;;5033426;28;19964;-75
2021/04/14 12:12:38;;;;;;;;;;;12.10;62.30;;;;;;5042945;28;20342;-75
2021/04/14 12:15:05;;;;;;;;;;;12.00;62.30;;;;;;5056804;28;20254;-75
2021/04/14 12:17:31;;;;;;;;;;;11.90;62.20;;;;;;5053490;28;19908;-75
2021/04/14 12:19:57;;;;;;;;;;;11.90;62.30;;;;;;5052137;28;19916;-75
2021/04/14 12:22:24;;;;;;;;;;;11.80;62.40;;;;;;5036097;28;19999;-75
2021/04/14 12:24:50;;;;;;;;;;;11.80;62.20;;;;;;5054891;28;19915;-75
2021/04/14 12:27:16;;;;;;;;;;;11.70;62.10;;;;;;5055899;28;19909;-74
2021/04/14 12:29:43;;;;;;;;;;;11.70;62.10;;;;;;5055157;28;20385;-75
2021/04/14 12:32:09;;;;;;;;;;;11.70;62.00;;;;;;5038722;28;19962;-75
2021/04/14 12:34:35;;;;;;;;;;;11.50;62.00;;;;;;5054215;28;19913;-75
2021/04/14 12:37:01;;;;;;;;;;;11.40;62.20;;;;;;5052810;28;19924;-75
2021/04/14 12:39:28;;;;;;;;;;;11.40;62.10;;;;;;5043570;28;19916;-75
2021/04/14 12:41:54;;;;;;;;;;;11.30;62.00;;;;;;5053787;28;19955;-74
2021/04/14 12:44:22;;;;;;;;;;;11.30;62.00;;;;;;5052934;28;19946;-75
2021/04/14 12:46:49;;;;;;;;;;;11.20;62.00;;;;;;5048747;28;19924;-75
2021/04/14 12:49:16;;;;;;;;;;;11.20;61.80;;;;;;5055665;28;19913;-75
2021/04/14 12:51:45;;;;;;;;;;;11.20;61.60;;;;;;5037810;28;20003;-75
2021/04/14 12:54:14;;;;;;;;;;;11.10;61.60;;;;;;5050151;28;19908;-75
2021/04/14 12:56:42;;;;;;;;;;;11.10;61.60;;;;;;5056071;28;19905;-75
2021/04/14 12:59:10;;;;;;;;;;;11.00;61.70;;;;;;5045823;28;19909;-76
2021/04/14 13:01:37;;;;;;;;;;;11.00;61.80;;;;;;5055196;28;19916;-75
2021/04/14 13:04:05;;;;;;;;;;;11.00;61.70;;;;;;5052805;28;19931;-75
2021/04/14 13:06:41;;;;;;;;;;;11.00;61.90;;;;;;5054923;28;20019;-75
2021/04/14 13:09:09;;;;;;;;;;;10.90;61.90;;;;;;5054741;28;20348;-75
2021/04/14 13:11:42;;;;;;;;;;;10.90;62.50;;;;;;5054101;28;19913;-75
2021/04/14 13:14:09;;;;;;;;;;;10.90;62.30;;;;;;5055095;28;19909;-75
2021/04/14 13:16:44;;;;;;;;;;;10.80;62.10;;;;;;5036757;28;19917;-75
2021/04/14 13:19:10;;;;;;;;;;;10.70;62.70;;;;;;5052862;28;19982;-75
2021/04/14 13:21:40;;;;;;;;;;;10.70;62.60;;;;;;5054702;28;19946;-75
2021/04/14 13:24:11;;;;;;;;;;;10.60;62.70;;;;;;5051209;28;19966;-75
2021/04/14 13:26:50;;;;;;;;;;;10.60;63.00;;;;;;5053179;28;19908;-75
2021/04/14 13:29:24;;;;;;;;;;;10.50;63.30;;;;;;5054746;28;19916;-75
2021/04/14 13:31:54;;;;;;;;;;;10.40;63.40;;;;;;5052863;28;19927;-75
2021/04/14 13:34:42;;;;;;;;;;;10.30;63.50;;;;;;5049641;28;19920;-76
2021/04/14 13:37:14;;;;;;;;;;;10.30;63.40;;;;;;5052589;28;19926;-76
2021/04/14 13:39:44;;;;;;;;;;;10.20;63.50;;;;;;5049673;28;19913;-76
2021/04/14 13:42:13;;;;;;;;;;;10.20;63.40;;;;;;5052489;28;19920;-76
2021/04/14 13:44:44;;;;;;;;;;;10.20;63.60;;;;;;5048278;28;19916;-76
2021/04/14 13:47:20;;;;;;;;;;;10.20;63.60;;;;;;5048808;28;19909;-75
2021/04/14 13:49:51;;;;;;;;;;;10.20;63.50;;;;;;5033654;28;19911;-75
2021/04/14 13:52:20;;;;;;;;;;;10.20;63.50;;;;;;5047975;28;19919;-75
2021/04/14 13:54:48;;;;;;;;;;;10.20;63.50;;;;;;5050809;28;20301;-75
2021/04/14 13:57:22;;;;;;;;;;;10.30;63.80;;;;;;5052855;28;19917;-76
2021/04/14 13:59:48;;;;;;;;;;;10.30;63.60;;;;;;5054086;28;20275;-75
2021/04/14 14:02:16;;;;;;;;;;;10.20;63.50;;;;;;5053808;28;20285;-76
2021/04/14 14:04:46;;;;;;;;;;;10.20;63.80;;;;;;5055005;28;19916;-76
2021/04/14 14:07:16;;;;;;;;;;;10.20;64.00;;;;;;5054355;28;19917;-76
2021/04/14 14:09:47;;;;;;;;;;;10.10;64.40;;;;;;5054015;28;20346;-76
2021/04/14 14:12:24;;;;;;;;;;;10.10;64.10;;;;;;5049943;28;20266;-76
2021/04/14 14:14:50;;;;;;;;;;;10.20;63.90;;;;;;5031149;28;20000;-76
2021/04/14 14:17:19;;;;;;;;;;;10.30;63.90;;;;;;5051823;28;19915;-75
2021/04/14 14:19:45;;;;;;;;;;;10.30;64.00;;;;;;5049234;28;20351;-76
2021/04/14 14:22:15;;;;;;;;;;;10.20;64.20;;;;;;5051616;28;19978;-75
2021/04/14 14:24:41;;;;;;;;;;;10.30;63.90;;;;;;5036337;28;20355;-76
2021/04/14 14:27:08;;;;;;;;;;;10.40;64.10;;;;;;5050602;28;19909;-75
2021/04/14 14:29:36;;;;;;;;;;;10.50;64.40;;;;;;5048619;28;20341;-76